createdAt,value
2023-04-19T00:01:51.172Z,5.6
2023-04-19T00:04:51.261Z,5.5
2023-04-19T00:07:51.178Z,5.4
2023-04-19T00:10:51.160Z,5.4
2023-04-19T00:13:51.181Z,5.3
2023-04-19T00:16:51.216Z,5.3
2023-04-19T00:19:51.194Z,5.2
2023-04-19T00:22:51.207Z,5.2
2023-04-19T00:25:51.204Z,5.1
2023-04-19T00:28:51.207Z,5.1
2023-04-19T00:31:51.203Z,5.1
2023-04-19T00:34:51.211Z,4.9
2023-04-19T00:37:51.223Z,4.8
2023-04-19T00:40:51.220Z,4.8
2023-04-19T00:43:51.222Z,4.6
2023-04-19T00:46:51.228Z,4.5
2023-04-19T00:49:51.238Z,4.5
2023-04-19T00:52:51.244Z,4.4
2023-04-19T00:55:51.268Z,4.4
2023-04-19T00:58:51.236Z,4.3
2023-04-19T01:01:51.294Z,4.3
2023-04-19T01:04:51.255Z,4.2
2023-04-19T01:07:51.268Z,4.2
2023-04-19T01:10:51.265Z,4.1
2023-04-19T01:13:51.261Z,4.1
2023-04-19T01:16:51.281Z,4.1
2023-04-19T01:19:51.270Z,4.1
2023-04-19T01:22:51.290Z,4.1
2023-04-19T01:25:51.286Z,4
2023-04-19T01:28:51.284Z,4
2023-04-19T01:31:51.321Z,4
2023-04-19T01:34:51.293Z,3.9
2023-04-19T01:37:51.317Z,4
2023-04-19T01:40:51.313Z,4
2023-04-19T01:43:51.322Z,3.9
2023-04-19T01:46:51.341Z,3.9
2023-04-19T01:49:51.316Z,3.8
2023-04-19T01:52:51.336Z,3.8
2023-04-19T01:55:51.322Z,3.8
2023-04-19T01:58:51.338Z,3.8
2023-04-19T02:01:51.328Z,3.8
2023-04-19T02:04:51.335Z,3.7
2023-04-19T02:07:51.343Z,3.7
2023-04-19T02:10:51.335Z,3.8
2023-04-19T02:13:51.341Z,3.7
2023-04-19T02:16:51.363Z,3.7
2023-04-19T02:19:51.352Z,3.7
2023-04-19T02:22:51.369Z,3.6
2023-04-19T02:25:51.348Z,3.6
2023-04-19T02:28:51.353Z,3.6
2023-04-19T02:31:51.384Z,3.5
2023-04-19T02:34:51.373Z,3.5
2023-04-19T02:37:51.388Z,3.5
2023-04-19T02:40:51.382Z,3.5
2023-04-19T02:43:51.402Z,3.4
2023-04-19T02:46:51.401Z,3.4
2023-04-19T02:49:51.414Z,3.3
2023-04-19T02:52:51.418Z,3.3
2023-04-19T02:55:51.416Z,3.2
2023-04-19T02:58:51.442Z,3.1
2023-04-19T03:01:51.459Z,3.2
2023-04-19T03:04:51.430Z,3.2
2023-04-19T03:07:51.446Z,3.2
2023-04-19T03:10:51.439Z,3.2
2023-04-19T03:13:51.441Z,3.1
2023-04-19T03:16:51.448Z,3.1
2023-04-19T03:19:51.444Z,3.1
2023-04-19T03:22:51.467Z,3
2023-04-19T03:25:51.465Z,3
2023-04-19T03:28:51.463Z,2.9
2023-04-19T03:31:51.465Z,2.9
2023-04-19T03:34:51.465Z,2.9
2023-04-19T03:37:51.480Z,2.9
2023-04-19T03:40:51.474Z,2.9
2023-04-19T03:43:51.471Z,2.8
2023-04-19T03:46:51.478Z,2.9
2023-04-19T03:49:51.488Z,2.8
2023-04-19T03:52:51.490Z,2.8
2023-04-19T03:55:51.476Z,2.8
2023-04-19T03:58:51.478Z,2.8
2023-04-19T04:01:51.510Z,2.8
2023-04-19T04:04:51.596Z,2.9
2023-04-19T04:07:51.532Z,2.8
2023-04-19T04:10:51.508Z,2.8
2023-04-19T04:13:51.502Z,2.8
2023-04-19T04:16:51.509Z,2.8
2023-04-19T04:19:51.513Z,2.8
2023-04-19T04:22:51.528Z,2.8
2023-04-19T04:25:51.527Z,2.8
2023-04-19T04:28:51.547Z,2.9
2023-04-19T04:31:51.580Z,2.9
2023-04-19T04:34:51.563Z,3
2023-04-19T04:37:51.574Z,3.1
2023-04-19T04:40:51.572Z,3.1
2023-04-19T04:43:58.792Z,3.2
2023-04-19T04:46:51.583Z,3.3
2023-04-19T04:49:51.590Z,3.4
2023-04-19T04:52:51.630Z,3.5
2023-04-19T04:55:51.594Z,3.6
2023-04-19T04:58:51.596Z,3.6
2023-04-19T05:01:51.600Z,3.6
2023-04-19T05:04:51.668Z,3.7
2023-04-19T05:07:51.619Z,3.7
2023-04-19T05:10:51.622Z,3.7
2023-04-19T05:13:51.622Z,3.8
2023-04-19T05:16:51.633Z,3.8
2023-04-19T05:19:51.639Z,3.8
2023-04-19T05:22:51.652Z,3.9
2023-04-19T05:25:51.641Z,3.9
2023-04-19T05:28:51.640Z,4
2023-04-19T05:31:51.777Z,4
2023-04-19T05:34:51.654Z,4.1
2023-04-19T05:37:51.667Z,4.2
2023-04-19T05:40:51.771Z,4.3
2023-04-19T05:43:51.675Z,4.4
2023-04-19T05:46:51.682Z,4.6
2023-04-19T05:49:51.691Z,4.9
2023-04-19T05:52:51.697Z,5.3
2023-04-19T05:55:51.693Z,5.8
2023-04-19T05:58:51.689Z,6.3
2023-04-19T06:01:51.714Z,6.8
2023-04-19T06:04:51.795Z,7.3
2023-04-19T06:07:55.397Z,7.9
2023-04-19T06:10:55.537Z,8.2
2023-04-19T06:13:51.735Z,8.5
2023-04-19T06:16:51.722Z,8.8
2023-04-19T06:19:51.732Z,9
2023-04-19T06:22:51.748Z,9.3
2023-04-19T06:25:51.744Z,9.5
2023-04-19T06:28:51.754Z,9.5
2023-04-19T06:31:51.791Z,9.7
2023-04-19T06:34:51.766Z,10
2023-04-19T06:37:52.117Z,10.2
2023-04-19T06:40:51.766Z,10.3
2023-04-19T06:43:51.774Z,10.4
2023-04-19T06:46:51.776Z,10.8
2023-04-19T06:49:51.775Z,11
2023-04-19T06:52:51.803Z,11
2023-04-19T06:55:51.800Z,11
2023-04-19T06:58:51.797Z,11.3
2023-04-19T07:01:51.885Z,11.4
2023-04-19T07:04:51.821Z,11.4
2023-04-19T07:07:51.833Z,11.2
2023-04-19T07:10:51.803Z,11.2
2023-04-19T07:13:51.821Z,11.1
2023-04-19T07:16:52.728Z,11.4
2023-04-19T07:19:51.824Z,11.5
2023-04-19T07:22:51.840Z,11.7
2023-04-19T07:25:51.823Z,12.1
2023-04-19T07:28:51.831Z,12.3
2023-04-19T07:31:51.852Z,12.5
2023-04-19T07:34:51.831Z,12.5
2023-04-19T07:37:51.842Z,12.6
2023-04-19T07:40:51.836Z,12.6
2023-04-19T07:43:51.846Z,12.3
2023-04-19T07:46:51.884Z,12.2
2023-04-19T07:49:51.860Z,12.3
2023-04-19T07:52:51.874Z,12.1
2023-04-19T07:55:51.861Z,12.4
2023-04-19T07:59:00.588Z,12.6
2023-04-19T08:01:51.912Z,12.9
2023-04-19T08:04:52.098Z,12.8
2023-04-19T08:07:51.892Z,12.8
2023-04-19T08:10:51.916Z,13
2023-04-19T08:14:04.352Z,13
2023-04-19T08:19:51.900Z,13.1
2023-04-19T08:22:51.919Z,13
2023-04-19T08:25:51.918Z,13.1
2023-04-19T08:28:51.916Z,13.8
2023-04-19T08:31:51.999Z,14.1
2023-04-19T08:34:51.928Z,14.1
2023-04-19T08:37:51.942Z,14.3
2023-04-19T08:40:51.932Z,14.6
2023-04-19T08:43:51.946Z,14.9
2023-04-19T08:46:51.993Z,15
2023-04-19T08:50:03.917Z,15.1
2023-04-19T08:52:57.327Z,15
2023-04-19T08:59:00.891Z,14.8
2023-04-19T09:01:51.973Z,14.9
2023-04-19T09:04:52.156Z,15.1
2023-04-19T09:07:51.985Z,15.3
2023-04-19T09:10:51.984Z,15.4
2023-04-19T09:13:52.892Z,15.4
2023-04-19T09:16:52.034Z,15.3
2023-04-19T09:19:51.993Z,15.4
2023-04-19T09:22:52.012Z,15.5
2023-04-19T09:26:14.965Z,15.7
2023-04-19T09:28:52.004Z,15.8
2023-04-19T09:31:52.447Z,15.5
2023-04-19T09:34:52.022Z,15.4
2023-04-19T09:38:04.555Z,15.2
2023-04-19T09:40:52.019Z,15.1
2023-04-19T09:44:02.196Z,15.2
2023-04-19T09:46:53.470Z,15.5
2023-04-19T09:49:52.251Z,15.4
2023-04-19T09:52:52.049Z,15.5
2023-04-19T09:56:01.163Z,15.4
2023-04-19T09:58:56.483Z,15.3
2023-04-19T10:01:52.113Z,15.2
2023-04-19T10:07:52.103Z,15.6
2023-04-19T10:10:52.075Z,15.2
2023-04-19T10:13:52.072Z,15.3
2023-04-19T10:16:52.151Z,15.4
2023-04-19T10:19:52.080Z,15.4
2023-04-19T10:22:52.090Z,15.3
2023-04-19T10:25:52.079Z,15.2
2023-04-19T10:28:52.101Z,15
2023-04-19T10:31:52.121Z,15.3
2023-04-19T10:34:52.112Z,15.5
2023-04-19T10:37:52.118Z,15.7
2023-04-19T10:40:52.126Z,15.8
2023-04-19T10:43:52.131Z,15.9
2023-04-19T10:46:52.154Z,16
2023-04-19T10:49:52.141Z,15.9
2023-04-19T10:52:52.140Z,15.7
2023-04-19T10:55:52.161Z,15.4
2023-04-19T10:58:52.150Z,15.6
2023-04-19T11:01:52.218Z,15.7
2023-04-19T11:04:52.152Z,15.7
2023-04-19T11:07:52.161Z,15.5
2023-04-19T11:10:53.320Z,15.5
2023-04-19T11:13:52.181Z,15
2023-04-19T11:16:52.194Z,14.7
2023-04-19T11:19:52.175Z,14.7
2023-04-19T11:22:52.172Z,14.3
2023-04-19T11:25:52.173Z,14.1
2023-04-19T11:28:52.168Z,14.1
2023-04-19T11:31:52.195Z,13.8
2023-04-19T11:34:52.189Z,13.9
2023-04-19T11:37:52.192Z,14
2023-04-19T11:40:52.198Z,14.4
2023-04-19T11:43:52.199Z,14.6
2023-04-19T11:46:52.210Z,14.8
2023-04-19T11:49:52.204Z,15.1
2023-04-19T11:52:52.212Z,15.4
2023-04-19T11:55:52.305Z,15.5
2023-04-19T11:58:52.217Z,15.6
2023-04-19T12:01:52.237Z,15.7
2023-04-19T12:04:52.351Z,15.5
2023-04-19T12:07:52.241Z,15.4
2023-04-19T12:10:52.246Z,15.2
2023-04-19T12:13:52.234Z,15
2023-04-19T12:16:52.297Z,15
2023-04-19T12:19:52.247Z,15
2023-04-19T12:22:52.257Z,15.5
2023-04-19T12:25:52.257Z,16
2023-04-19T12:28:52.276Z,15.7
2023-04-19T12:31:52.332Z,15.1
2023-04-19T12:34:52.276Z,14.6
2023-04-19T12:37:52.287Z,14.2
2023-04-19T12:40:52.284Z,13.9
2023-04-19T12:43:52.286Z,13.8
2023-04-19T12:46:52.290Z,14.1
2023-04-19T12:49:52.305Z,14.1
2023-04-19T12:52:52.303Z,14
2023-04-19T12:55:52.303Z,14.1
2023-04-19T12:58:52.321Z,14.2
2023-04-19T13:01:52.370Z,14.3
2023-04-19T13:04:52.499Z,14.5
2023-04-19T13:07:52.325Z,14.5
2023-04-19T13:10:52.332Z,14.6
2023-04-19T13:13:52.325Z,14.8
2023-04-19T13:16:52.329Z,14.4
2023-04-19T13:19:52.336Z,14.4
2023-04-19T13:22:52.390Z,14.2
2023-04-19T13:25:52.353Z,14.3
2023-04-19T13:28:52.353Z,14.6
2023-04-19T13:31:52.383Z,14.5
2023-04-19T13:34:52.367Z,14.2
2023-04-19T13:37:52.370Z,14
2023-04-19T13:40:52.391Z,13.8
2023-04-19T13:43:52.389Z,13.8
2023-04-19T13:46:52.421Z,13.8
2023-04-19T13:49:52.406Z,13.9
2023-04-19T13:52:52.404Z,13.9
2023-04-19T13:55:52.397Z,14
2023-04-19T13:58:52.429Z,14.2
2023-04-19T14:01:52.422Z,14.2
2023-04-19T14:04:52.414Z,14.2
2023-04-19T14:07:52.409Z,14.4
2023-04-19T14:10:52.455Z,14.5
2023-04-19T14:13:52.419Z,14.4
2023-04-19T14:16:52.481Z,14.3
2023-04-19T14:19:52.430Z,13.9
2023-04-19T14:22:52.429Z,13.6
2023-04-19T14:25:52.435Z,13.5
2023-04-19T14:28:52.432Z,13.6
2023-04-19T14:31:52.463Z,13.4
2023-04-19T14:34:52.431Z,13
2023-04-19T14:37:52.441Z,12.6
2023-04-19T14:40:52.442Z,12.5
2023-04-19T14:43:52.452Z,12.6
2023-04-19T14:46:52.444Z,12.8
2023-04-19T14:49:52.453Z,12.9
2023-04-19T14:52:52.451Z,13
2023-04-19T14:55:52.455Z,13.1
2023-04-19T14:58:52.444Z,13
2023-04-19T15:01:52.464Z,13
2023-04-19T15:04:52.594Z,13.1
2023-04-19T15:07:52.468Z,13.1
2023-04-19T15:10:52.453Z,13.2
2023-04-19T15:13:52.450Z,13.2
2023-04-19T15:16:52.460Z,13.2
2023-04-19T15:19:52.461Z,13.1
2023-04-19T15:22:52.503Z,13
2023-04-19T15:25:52.463Z,12.9
2023-04-19T15:28:52.470Z,12.9
2023-04-19T15:31:52.513Z,12.8
2023-04-19T15:34:52.467Z,12.7
2023-04-19T15:37:52.462Z,12.7
2023-04-19T15:40:52.468Z,12.7
2023-04-19T15:43:52.470Z,12.7
2023-04-19T15:46:52.514Z,12.7
2023-04-19T15:49:52.471Z,12.7
2023-04-19T15:52:52.478Z,12.7
2023-04-19T15:55:53.722Z,12.6
2023-04-19T15:58:52.487Z,12.6
2023-04-19T16:01:52.512Z,12.5
2023-04-19T16:04:52.558Z,12.5
2023-04-19T16:07:52.489Z,12.5
2023-04-19T16:10:52.502Z,12.5
2023-04-19T16:13:52.491Z,12.5
2023-04-19T16:16:52.511Z,12.6
2023-04-19T16:19:52.496Z,12.6
2023-04-19T16:22:52.493Z,12.6
2023-04-19T16:25:53.776Z,12.6
2023-04-19T16:28:52.496Z,12.5
2023-04-19T16:31:52.579Z,12.5
2023-04-19T16:34:52.512Z,12.3
2023-04-19T16:37:53.592Z,12.2
2023-04-19T16:40:52.511Z,12.1
2023-04-19T16:43:53.535Z,12.1
2023-04-19T16:46:52.503Z,11.9
2023-04-19T16:49:53.396Z,11.9
2023-04-19T16:52:52.515Z,11.7
2023-04-19T16:55:53.521Z,11.7
2023-04-19T16:58:52.523Z,11.6
2023-04-19T17:01:53.339Z,11.6
2023-04-19T17:04:52.668Z,11.5
2023-04-19T17:07:53.782Z,11.5
2023-04-19T17:10:52.543Z,11.5
2023-04-19T17:13:54.162Z,11.4
2023-04-19T17:16:52.548Z,11.4
2023-04-19T17:19:53.658Z,11.3
2023-04-19T17:22:52.549Z,11.1
2023-04-19T17:25:52.558Z,11.1
2023-04-19T17:28:52.560Z,11
2023-04-19T17:31:52.598Z,10.9
2023-04-19T17:34:52.566Z,10.8
2023-04-19T17:37:52.564Z,10.7
2023-04-19T17:40:52.568Z,10.7
2023-04-19T17:43:52.577Z,10.6
2023-04-19T17:46:52.678Z,10.5
2023-04-19T17:49:52.576Z,10.4
2023-04-19T17:52:52.572Z,10.4
2023-04-19T17:55:52.596Z,10.3
2023-04-19T17:58:52.593Z,10.2
2023-04-19T18:01:52.635Z,10.1
2023-04-19T18:04:52.602Z,10
2023-04-19T18:07:52.622Z,9.8
2023-04-19T18:10:52.607Z,9.5
2023-04-19T18:13:52.622Z,9.3
2023-04-19T18:16:52.676Z,9.1
2023-04-19T18:19:52.616Z,8.9
2023-04-19T18:22:52.645Z,8.7
2023-04-19T18:25:52.648Z,8.5
2023-04-19T18:28:52.662Z,8.4
2023-04-19T18:31:52.666Z,8.3
2023-04-19T18:34:52.646Z,8.1
2023-04-19T18:37:52.629Z,8
2023-04-19T18:40:52.638Z,7.8
2023-04-19T18:44:13.507Z,7.7
2023-04-19T18:46:52.647Z,7.5
2023-04-19T18:50:04.182Z,7.3
2023-04-19T18:52:52.649Z,7.1
2023-04-19T18:55:53.000Z,6.9
2023-04-19T18:58:52.648Z,6.8
2023-04-19T19:01:52.736Z,6.7
2023-04-19T19:04:58.221Z,6.5
2023-04-19T19:07:52.828Z,6.4
2023-04-19T19:13:52.682Z,6.2
2023-04-19T19:16:53.123Z,6.1
2023-04-19T19:19:52.699Z,6.1
2023-04-19T19:22:52.700Z,6.1
2023-04-19T19:25:52.704Z,6.1
2023-04-19T19:28:52.704Z,6.1
2023-04-19T19:31:52.722Z,6.1
2023-04-19T19:34:56.128Z,6
2023-04-19T19:37:52.719Z,5.9
2023-04-19T19:41:28.365Z,5.8
2023-04-19T19:43:52.735Z,5.7
2023-04-19T19:46:52.759Z,5.7
2023-04-19T19:50:13.638Z,5.7
2023-04-19T19:52:52.743Z,5.7
2023-04-19T19:55:52.751Z,5.7
2023-04-19T19:58:52.754Z,5.7
2023-04-19T20:01:52.780Z,5.7
2023-04-19T20:04:52.851Z,5.7
2023-04-19T20:08:01.447Z,5.7
2023-04-19T20:10:52.798Z,5.8
2023-04-19T20:13:52.786Z,5.8
2023-04-19T20:16:52.782Z,5.9
2023-04-19T20:19:52.790Z,6
2023-04-19T20:22:52.789Z,6.1
2023-04-19T20:25:52.799Z,6.1
2023-04-19T20:28:52.797Z,6.1
2023-04-19T20:31:52.850Z,6.2
2023-04-19T20:34:52.808Z,6.3
2023-04-19T20:37:52.829Z,6.4
2023-04-19T20:40:52.819Z,6.4
2023-04-19T20:43:52.828Z,6.5
2023-04-19T20:46:52.843Z,6.5
2023-04-19T20:49:52.841Z,6.5
2023-04-19T20:52:52.858Z,6.5
2023-04-19T20:55:52.854Z,6.5
2023-04-19T20:58:52.867Z,6.5
2023-04-19T21:01:52.869Z,6.5
2023-04-19T21:04:52.880Z,6.5
2023-04-19T21:07:52.890Z,6.5
2023-04-19T21:10:52.894Z,6.5
2023-04-19T21:13:52.897Z,6.4
2023-04-19T21:16:52.907Z,6.4
2023-04-19T21:19:52.915Z,6.4
2023-04-19T21:22:52.916Z,6.4
2023-04-19T21:25:52.943Z,6.4
2023-04-19T21:28:52.936Z,6.4
2023-04-19T21:31:52.985Z,6.4
2023-04-19T21:34:52.960Z,6.4
2023-04-19T21:37:52.966Z,6.3
2023-04-19T21:40:52.954Z,6.3
2023-04-19T21:43:52.962Z,6.3
2023-04-19T21:46:53.052Z,6.3
2023-04-19T21:49:52.988Z,6.3
2023-04-19T21:52:52.982Z,6.3
2023-04-19T21:55:53.005Z,6.3
2023-04-19T21:58:53.008Z,6.2
2023-04-19T22:01:53.996Z,6.1
2023-04-19T22:04:53.014Z,5.9
2023-04-19T22:07:53.031Z,5.8
2023-04-19T22:10:53.043Z,5.7
2023-04-19T22:13:53.051Z,5.6
2023-04-19T22:16:53.108Z,5.6
2023-04-19T22:19:53.075Z,5.5
2023-04-19T22:22:53.072Z,5.4
2023-04-19T22:25:53.092Z,5.2
2023-04-19T22:28:53.110Z,5.1
2023-04-19T22:31:53.138Z,5
2023-04-19T22:34:53.101Z,4.9
2023-04-19T22:37:53.120Z,4.8
2023-04-19T22:40:53.130Z,4.7
2023-04-19T22:43:53.131Z,4.7
2023-04-19T22:46:53.138Z,4.6
2023-04-19T22:49:53.148Z,4.5
2023-04-19T22:52:53.152Z,4.4
2023-04-19T22:55:53.160Z,4.4
2023-04-19T22:58:53.164Z,4.3
2023-04-19T23:01:53.366Z,4.2
2023-04-19T23:04:53.227Z,4.3
2023-04-19T23:07:53.197Z,4.2
2023-04-19T23:10:53.205Z,4.2
2023-04-19T23:13:53.201Z,4.2
2023-04-19T23:16:53.203Z,4.2
2023-04-19T23:19:53.208Z,4.2
2023-04-19T23:22:53.227Z,4.2
2023-04-19T23:25:53.218Z,4.3
2023-04-19T23:28:53.219Z,4.2
2023-04-19T23:31:53.231Z,4.3
2023-04-19T23:34:53.229Z,4.3
2023-04-19T23:37:53.232Z,4.3
2023-04-19T23:40:53.251Z,4.3
2023-04-19T23:43:53.247Z,4.4
2023-04-19T23:46:53.285Z,4.4
2023-04-19T23:49:53.266Z,4.4
2023-04-19T23:52:53.269Z,4.4
2023-04-19T23:55:53.285Z,4.5
2023-04-19T23:58:53.282Z,4.5
